Flight NumberIPC2016 Date21.03.2016
Departure AirportLGAV Arrival AirportOIIE
Departure Time20.41Arrival Time23.38
Pilot In CommandShahin A. Kharrazi Block Time2.90 Hours
Pilot Rating100 % Aircraft [ ]


Distance1,316.00 Nm. Passengers0
Fuel Used36,635 Kg. Cargo133901 Kg
Expense Details Income Details
Fuel Cost40,031 v$Ticket Sales0 v$
Pilot Salary2,902 v$ Cargo income170,334.00 v$
Crew Salary0 v$ Bonus24,187 v$
Gross Profit142,221 v$ ( 42,666,300 v$ )

Client Versionv2.1.0 Plugin Max Simrate1
Flight Critique Pilot CommentsOIIE 202300Z 31004KT 9999 FEW040 BKN100 13/M03 Q1013